Flight Track Log - Related Links

Times and Time Zones

All times are in EST time to prevent confusion due to time zone crossing. See the EJA829P flight status page for this flight to view local times or setup timezone preferences in your user account.

Time Position Orientation Groundspeed Altitude Reporting Facility
EST Latitude Longitude Course Direction KTS MPH feet Rate Location/Type
Mon 09:12:40 AM 28.4333 -81.3333 50° Northeast 171 197 1,000  Level Orlando TRACON
Mon 09:13:59 AM 28.4833 -81.2667 50° Northeast 242 278 4,900 1,727 Climbing Orlando TRACON
Mon 09:14:59 AM 28.5167 -81.2000 60° Northeast 270 311 5,000 53 Climbing Orlando TRACON
Mon 09:15:53 AM 28.4833 -81.1167 114° Southeast 274 315 5,000 1,900 Level Orlando TRACON
Mon 09:16:59 AM 28.4333 -81.0500 130° Southeast 288 331 8,800 3,336 Climbing Orlando TRACON
Mon 09:19:27 AM 28.3347 -80.8522 119° Southeast 312 359 16,900 2,913 Climbing Miami Center
Mon 09:20:27 AM 28.2792 -80.7489 121° Southeast 325 374 18,900 1,050 Climbing Miami Center
Mon 09:21:27 AM 28.1958 -80.6683 140° Southeast 373 429 19,000 50 Climbing Miami Center
Mon 09:22:27 AM 28.1125 -80.5853 139° Southeast 387 445 19,000  Level Miami Center
Mon 09:23:27 AM 28.0247 -80.5025 140° Southeast 398 458 19,000  Level Miami Center
Mon 09:24:27 AM 27.9456 -80.4178 137° Southeast 398 458 19,000  Level Miami Center
Mon 09:25:27 AM 27.8619 -80.3331 138° Southeast 405 466 19,000  Level Miami Center
Mon 09:26:27 AM 27.7742 -80.2550 142° Southeast 405 466 19,000  Level Miami Center
Mon 09:27:27 AM 27.6772 -80.2006 154° Southeast 399 459 19,000  Level Miami Center
Mon 09:28:27 AM 27.5803 -80.1486 155° Southeast 392 451 19,000  Level Miami Center
Mon 09:29:27 AM 27.4833 -80.0944 154° Southeast 387 445 19,000  Level Miami Center
Mon 09:30:27 AM 27.3886 -80.0425 154° Southeast 382 440 19,000  Level Miami Center
Mon 09:31:27 AM 27.2936 -79.9886 153° Southeast 382 440 19,000  Level Miami Center
Mon 09:32:27 AM 27.1967 -79.9344 154° Southeast 382 440 19,000 -400 Level Miami Center
Mon 09:33:27 AM 27.1017 -79.8808 153° Southeast 382 440 18,200 -1,050 Descending Miami Center
Mon 09:34:27 AM 27.0089 -79.8294 154° Southeast 377 434 16,900 -1,400 Descending Miami Center
Mon 09:35:27 AM 26.9181 -79.7781 153° Southeast 377 434 15,400 -950 Descending Miami Center
Mon 09:36:27 AM 26.8250 -79.7269 154° Southeast 377 434 15,000 -200 Descending Miami Center
Mon 09:37:27 AM 26.7297 -79.6944 163° South 371 427 15,000 -765 Level Miami Center
Mon 09:38:09 AM 26.6642 -79.7278 204° Southwest 328 377 13,700 -2,000 Descending Miami Center
Mon 09:38:27 AM 26.6431 -79.7364 200° South 334 384 13,000 -2,032 Descending Miami Center
Mon 09:39:11 AM 26.5819 -79.7650 203° Southwest 313 360 11,600 -1,800 Descending Miami Center
Mon 09:39:27 AM 26.5631 -79.7717 198° South 323 372 11,200 -1,967 Descending Miami Center
Mon 09:40:12 AM 26.5039 -79.8028 205° Southwest 299 344 9,600 -1,900 Descending Miami Center
Mon 09:40:27 AM 26.4933 -79.8069 199° South 314 361 9,300 -1,636 Descending Miami Center
Mon 09:41:07 AM 26.4386 -79.8336 204° Southwest 279 321 8,100 -1,200 Descending Miami Center
Mon 09:41:27 AM 26.4175 -79.8422 200° South 297 342 8,100 -88 Level Miami Center
Mon 09:42:15 AM 26.3603 -79.8803 211° Southwest 280 322 8,000 -100 Descending Miami Center
Mon 09:42:27 AM 26.3583 -79.8825 226° Southwest 286 329 8,000  Level Miami Center
Mon 09:43:27 AM 26.2942 -79.9433 220° Southwest 281 323 8,000  Level Miami Center
Mon 09:44:12 AM 26.2475 -79.9886 221° Southwest 276 318 8,000  Level Miami Center
Mon 09:44:27 AM 26.2408 -79.9953 222° Southwest 276 318 8,000 -880 Level Miami Center
Mon 09:45:27 AM 26.1833 -80.0539 222° Southwest 282 325 6,900 -1,188 Descending Miami Center
Mon 09:46:08 AM 26.1611 -80.1158 248° West 268 308 6,000 -900 Descending Miami Center
Mon 09:46:27 AM 26.1586 -80.1344 261° West 276 318 6,000 -537 Level Miami Center
Mon 09:47:15 AM 26.1486 -80.2058 261° West 243 280 5,400 -800 Descending Miami Center
Mon 09:47:27 AM 26.1506 -80.2081 314° West 264 304 5,200 -1,254 Descending Miami Center
Mon 09:48:22 AM 26.1467 -80.2844 267° West 239 275 4,000 -923 Descending Miami Center
Mon 09:49:24 AM 26.1242 -80.3531 250° West 234 269 3,400 -927 Descending Miami Center
Mon 09:50:25 AM 26.0747 -80.3308 158° South 206 237 2,100 -787 Descending Miami Center
Mon 09:51:26 AM 26.0739 -80.2753 91° East 150 173 1,800 -492 Descending Miami Center
Mon 09:52:27 AM 26.0750 -80.2292 88° East 142 163 1,100 -724 Descending Miami Center
Mon 09:53:22 AM 26.0736 -80.1944 93° East 110 127 400 -764 Descending Miami Center
Mon 09:55:00 AM 26.0667 -80.1500 103° East  Level FlightAware Approximate
Mon 10:02:00 AM 26.0726 -80.1527 103° East  Level Estimated

Login

Don't have an account? Register now (free) for customized features, flight alerts, and more!